Time;durP1;ratioP1;P1;durP2;ratioP2;P2;SDS_P1;SDS_P2;PMS_P1;PMS_P2;Temp;Humidity;BMP_temperature;BMP_pressure;BME280_temperature;BME280_humidity;BME280_pressure;Samples;Min_cycle;Max_cycle;Signal;HPM_P1;HPM_P2
2022/06/05 00:00:47;;;;;;;9.63;6.20;;;15.60;99.90;;;;;;5099254;28;20213;-71
2022/06/05 00:03:28;;;;;;;7.22;5.47;;;15.60;99.90;;;;;;5111345;28;20276;-71
2022/06/05 00:06:52;;;;;;;6.63;5.93;;;15.60;99.90;;;;;;5099336;28;20243;-71
2022/06/05 00:09:57;;;;;;;9.35;5.93;;;15.50;99.90;;;;;;5093731;28;20221;-71
2022/06/05 00:12:33;;;;;;;11.45;6.93;;;15.40;99.90;;;;;;5102551;28;20793;-71
2022/06/05 00:14:58;;;;;;;9.13;6.32;;;15.30;99.90;;;;;;5099181;28;20209;-71
2022/06/05 00:17:24;;;;;;;7.68;5.53;;;15.20;99.90;;;;;;5099594;28;20211;-71
2022/06/05 00:19:52;;;;;;;6.30;5.68;;;15.20;99.90;;;;;;5099650;28;20201;-71
2022/06/05 00:22:18;;;;;;;7.55;5.95;;;15.20;99.90;;;;;;5101254;28;20166;-71
2022/06/05 00:24:45;;;;;;;8.27;6.13;;;15.10;99.90;;;;;;5118551;28;20263;-71
2022/06/05 00:27:18;;;;;;;7.32;5.78;;;15.00;99.90;;;;;;5100803;28;20190;-71
2022/06/05 00:29:57;;;;;;;8.65;6.15;;;15.00;99.90;;;;;;5101203;28;20221;-72
2022/06/05 00:32:47;;;;;;;9.07;6.88;;;15.00;99.90;;;;;;5113251;28;20204;-72
2022/06/05 00:35:16;;;;;;;10.65;6.18;;;15.00;99.90;;;;;;5085793;28;20315;-71
2022/06/05 00:38:02;;;;;;;8.18;6.45;;;15.00;99.90;;;;;;5101148;28;20181;-71
2022/06/05 00:40:47;;;;;;;11.48;6.75;;;15.00;99.90;;;;;;5101517;28;20177;-71
2022/06/05 00:43:17;;;;;;;10.23;7.60;;;15.10;99.90;;;;;;5118952;28;20205;-71
2022/06/05 00:45:43;;;;;;;12.23;7.07;;;14.80;99.90;;;;;;5099944;28;20201;-71
2022/06/05 00:48:11;;;;;;;9.32;7.13;;;14.80;99.90;;;;;;5118048;28;20291;-71
2022/06/05 00:50:38;;;;;;;10.25;7.18;;;14.70;99.90;;;;;;5118508;28;20761;-71
2022/06/05 00:53:06;;;;;;;10.65;6.90;;;14.80;99.90;;;;;;5100043;28;20229;-71
2022/06/05 00:55:38;;;;;;;13.20;7.35;;;14.80;99.90;;;;;;5099935;28;20216;-72
2022/06/05 00:58:04;;;;;;;9.57;7.40;;;14.80;99.90;;;;;;5115805;28;20216;-71
2022/06/05 01:00:33;;;;;;;8.10;6.45;;;14.80;99.90;;;;;;5095555;28;20205;-71
2022/06/05 01:03:02;;;;;;;11.32;7.38;;;14.70;99.90;;;;;;5107230;28;20297;-71
2022/06/05 01:05:29;;;;;;;10.43;7.70;;;14.60;99.90;;;;;;5113660;28;20210;-71
2022/06/05 01:07:55;;;;;;;10.40;7.82;;;14.50;99.90;;;;;;5095404;28;20564;-71
2022/06/05 01:10:26;;;;;;;8.77;7.13;;;14.50;99.90;;;;;;5095611;28;20166;-71
2022/06/05 01:13:10;;;;;;;13.17;7.83;;;14.50;99.90;;;;;;5113608;28;20197;-72
2022/06/05 01:16:09;;;;;;;9.82;7.10;;;14.40;99.90;;;;;;5113631;28;20592;-72
2022/06/05 01:18:45;;;;;;;11.07;7.10;;;14.40;99.90;;;;;;5094961;28;20274;-70
2022/06/05 01:21:33;;;;;;;9.80;7.67;;;14.30;99.90;;;;;;5095115;28;20205;-69
2022/06/05 01:24:37;;;;;;;12.20;8.50;;;14.30;99.90;;;;;;5095155;28;20206;-72
2022/06/05 01:27:07;;;;;;;9.98;7.85;;;14.20;99.90;;;;;;5113561;28;20490;-72
2022/06/05 01:29:51;;;;;;;8.97;8.07;;;14.20;99.90;;;;;;5113595;28;20674;-72
2022/06/05 01:32:33;;;;;;;12.37;8.00;;;14.30;99.90;;;;;;5088629;28;20839;-69
2022/06/05 01:35:14;;;;;;;9.80;7.73;;;14.30;99.90;;;;;;5113254;28;20217;-69
2022/06/05 01:37:50;;;;;;;14.40;8.43;;;14.30;99.90;;;;;;5094592;28;20173;-70
2022/06/05 01:40:22;;;;;;;12.27;8.53;;;14.20;99.90;;;;;;5113528;28;20533;-70
2022/06/05 01:42:57;;;;;;;13.60;8.07;;;14.10;99.90;;;;;;5112964;28;20669;-71
2022/06/05 01:45:52;;;;;;;11.93;8.17;;;14.10;99.90;;;;;;5094676;28;20201;-70
2022/06/05 01:48:36;;;;;;;12.87;8.13;;;14.20;99.90;;;;;;5094196;28;20198;-70
2022/06/05 01:51:06;;;;;;;9.63;8.03;;;14.10;99.90;;;;;;5094603;28;20208;-72
2022/06/05 01:53:44;;;;;;;9.77;7.60;;;14.20;99.90;;;;;;5094276;28;20217;-72
2022/06/05 01:56:26;;;;;;;11.43;7.70;;;14.20;99.90;;;;;;5109400;22;20250;-69
2022/06/05 01:58:56;;;;;;;12.03;8.30;;;14.20;99.90;;;;;;5094163;28;20194;-69
2022/06/05 02:01:27;;;;;;;10.00;8.30;;;14.10;99.90;;;;;;5110592;27;20220;-69
2022/06/05 02:04:34;;;;;;;12.23;8.43;;;14.00;99.90;;;;;;5094910;28;20205;-69
2022/06/05 02:07:08;;;;;;;12.18;8.68;;;14.10;99.90;;;;;;5110560;28;20209;-69
2022/06/05 02:09:39;;;;;;;10.30;8.40;;;14.10;99.90;;;;;;5110534;28;20212;-72
2022/06/05 02:12:07;;;;;;;13.53;9.20;;;14.00;99.90;;;;;;5111875;28;20215;-69
2022/06/05 02:14:33;;;;;;;11.40;8.70;;;14.00;99.90;;;;;;5101637;27;20207;-69
2022/06/05 02:17:00;;;;;;;12.83;8.93;;;14.00;99.90;;;;;;5123443;27;20204;-69
2022/06/05 02:19:26;;;;;;;9.77;8.77;;;14.00;99.90;;;;;;5122752;27;20192;-70
2022/06/05 02:21:59;;;;;;;10.33;8.67;;;14.00;99.90;;;;;;5119805;27;20201;-70
2022/06/05 02:24:26;;;;;;;12.17;8.67;;;13.90;99.90;;;;;;5120078;27;20201;-70
2022/06/05 02:26:52;;;;;;;12.27;8.97;;;14.00;99.90;;;;;;5123171;27;20204;-70
2022/06/05 02:29:24;;;;;;;11.03;8.33;;;14.00;99.90;;;;;;5124088;27;20212;-70
2022/06/05 02:32:17;;;;;;;10.83;8.93;;;14.00;99.90;;;;;;5112987;27;20687;-70
2022/06/05 02:34:59;;;;;;;10.80;7.77;;;14.00;99.90;;;;;;5122581;27;20173;-70
2022/06/05 02:37:48;;;;;;;10.23;7.90;;;14.00;99.90;;;;;;5124148;27;20190;-70
2022/06/05 02:40:49;;;;;;;12.77;8.27;;;14.10;99.90;;;;;;5121234;27;20218;-70
2022/06/05 02:43:28;;;;;;;11.60;8.63;;;14.00;99.90;;;;;;5118634;27;20661;-70
2022/06/05 02:46:03;;;;;;;12.50;8.53;;;14.10;99.90;;;;;;5114842;27;20350;-70
2022/06/05 02:48:34;;;;;;;10.02;8.85;;;14.00;99.90;;;;;;5119876;27;20216;-70
2022/06/05 02:51:08;;;;;;;11.77;8.87;;;14.00;99.90;;;;;;5122795;27;20197;-69
2022/06/05 02:53:51;;;;;;;10.17;8.37;;;14.00;99.90;;;;;;5120680;27;20209;-70
2022/06/05 02:56:18;;;;;;;11.70;9.27;;;14.00;99.90;;;;;;5118932;27;20627;-70
2022/06/05 02:58:45;;;;;;;10.37;8.63;;;14.10;99.90;;;;;;5121744;27;20204;-70
2022/06/05 03:03:56;;;;;;;11.30;8.50;;;14.00;99.90;;;;;;5113423;27;20250;-70
2022/06/05 03:06:22;;;;;;;11.63;8.60;;;14.00;99.90;;;;;;5118545;27;20205;-69
2022/06/05 03:08:48;;;;;;;12.43;8.60;;;13.80;99.90;;;;;;5118670;27;20205;-70
2022/06/05 03:11:13;;;;;;;12.80;9.27;;;13.80;99.90;;;;;;5120277;27;20202;-70
2022/06/05 03:13:39;;;;;;;13.30;9.50;;;13.80;99.90;;;;;;5121752;27;20181;-70
2022/06/05 03:16:07;;;;;;;12.20;8.53;;;13.80;99.90;;;;;;5118742;27;20217;-70
2022/06/05 03:18:33;;;;;;;13.67;9.37;;;13.90;99.90;;;;;;5119905;27;20217;-69
2022/06/05 03:20:59;;;;;;;14.47;9.37;;;13.90;99.90;;;;;;5121457;27;20300;-69
2022/06/05 03:23:26;;;;;;;11.07;9.40;;;13.90;99.90;;;;;;5121312;27;20273;-69
2022/06/05 03:25:52;;;;;;;12.23;9.03;;;14.30;99.90;;;;;;5119965;27;20198;-70
2022/06/05 03:28:18;;;;;;;9.88;7.72;;;16.20;99.90;;;;;;5118964;27;20177;-70
2022/06/05 03:30:44;;;;;;;9.90;7.85;;;18.00;99.90;;;;;;5121419;27;20217;-70
2022/06/05 03:33:10;;;;;;;9.00;7.45;;;19.20;99.90;;;;;;5122282;27;20208;-71
2022/06/05 03:35:38;;;;;;;10.00;7.15;;;20.20;99.90;;;;;;5120968;27;20684;-70
2022/06/05 03:38:04;;;;;;;8.52;7.50;;;20.80;99.90;;;;;;5120056;27;20670;-70
2022/06/05 03:40:30;;;;;;;9.90;7.35;;;20.40;99.90;;;;;;5120147;27;20173;-71
2022/06/05 03:42:56;;;;;;;7.40;6.60;;;21.20;99.90;;;;;;5121964;27;20271;-70
2022/06/05 03:45:22;;;;;;;10.05;7.30;;;22.00;99.90;;;;;;5120881;27;20239;-68
2022/06/05 03:47:48;;;;;;;9.57;6.68;;;22.60;99.90;;;;;;5118260;28;20202;-70
2022/06/05 03:50:15;;;;;;;11.68;7.22;;;23.50;99.90;;;;;;5118154;28;20276;-70
2022/06/05 03:52:41;;;;;;;9.88;7.45;;;23.70;99.90;;;;;;5121016;27;20180;-70
2022/06/05 03:55:09;;;;;;;9.00;6.25;;;23.90;99.90;;;;;;5122142;28;20193;-70
2022/06/05 03:57:35;;;;;;;7.45;6.55;;;24.80;99.90;;;;;;5119815;28;20252;-70
2022/06/05 04:00:00;;;;;;;8.90;6.35;;;25.30;99.90;;;;;;5118021;28;20292;-70
2022/06/05 04:02:26;;;;;;;10.85;7.00;;;25.80;99.90;;;;;;5119121;28;20690;-70
2022/06/05 04:04:52;;;;;;;8.60;7.22;;;25.60;99.90;;;;;;5122699;27;20165;-70
2022/06/05 04:07:19;;;;;;;8.70;6.18;;;25.50;99.90;;;;;;5123922;28;20169;-70
2022/06/05 04:09:44;;;;;;;6.93;6.18;;;24.70;99.90;;;;;;5121655;28;20217;-70
2022/06/05 04:12:10;;;;;;;7.38;6.47;;;23.80;99.90;;;;;;5121891;28;20246;-70
2022/06/05 04:14:35;;;;;;;8.82;6.65;;;23.70;99.90;;;;;;5111532;28;20757;-70
2022/06/05 04:17:01;;;;;;;7.68;6.45;;;24.90;99.90;;;;;;5121597;27;20208;-70
2022/06/05 04:19:27;;;;;;;7.70;6.18;;;26.00;99.90;;;;;;5120733;28;20195;-71
2022/06/05 04:21:52;;;;;;;5.82;5.32;;;26.60;99.90;;;;;;5119534;28;20201;-71
2022/06/05 04:24:18;;;;;;;8.25;6.18;;;27.00;99.90;;;;;;5119615;27;20194;-70
2022/06/05 04:26:44;;;;;;;8.20;6.28;;;26.90;99.90;;;;;;5120927;28;20205;-71
2022/06/05 04:29:10;;;;;;;6.38;5.65;;;26.00;99.90;;;;;;5121366;28;20244;-70
2022/06/05 04:31:38;;;;;;;7.50;6.07;;;26.10;99.90;;;;;;5115775;28;20186;-70
2022/06/05 04:34:08;;;;;;;8.80;5.68;;;25.70;99.90;;;;;;5112720;28;20213;-70
2022/06/05 04:36:34;;;;;;;6.13;5.53;;;25.10;99.90;;;;;;5113234;28;20232;-71
2022/06/05 04:39:00;;;;;;;7.20;5.95;;;26.10;99.90;;;;;;5113273;28;20205;-70
2022/06/05 04:41:26;;;;;;;6.28;5.35;;;25.60;99.90;;;;;;5113367;28;20242;-70
2022/06/05 04:43:53;;;;;;;8.00;6.13;;;26.50;99.90;;;;;;5113521;28;20166;-70
2022/06/05 04:46:20;;;;;;;6.65;5.78;;;26.80;99.90;;;;;;5113719;28;20197;-71
2022/06/05 04:48:46;;;;;;;7.18;5.60;;;26.90;99.90;;;;;;5114152;28;20201;-71
2022/06/05 04:51:13;;;;;;;9.27;6.38;;;27.90;99.90;;;;;;5113396;28;20217;-71
2022/06/05 04:53:39;;;;;;;8.02;5.85;;;27.70;99.90;;;;;;5113065;28;20310;-70
2022/06/05 04:56:08;;;;;;;7.07;6.13;;;27.40;99.90;;;;;;5113115;28;20537;-71
2022/06/05 04:58:34;;;;;;;6.97;5.97;;;28.00;99.20;;;;;;5113090;28;20284;-71
2022/06/05 05:01:00;;;;;;;6.63;6.03;;;27.50;99.30;;;;;;5113234;28;20343;-71
2022/06/05 05:03:26;;;;;;;8.38;5.88;;;27.00;99.70;;;;;;5112799;27;20420;-70
2022/06/05 05:05:52;;;;;;;8.90;6.38;;;27.40;99.90;;;;;;5112878;28;20208;-70
2022/06/05 05:08:18;;;;;;;7.93;5.75;;;28.10;98.90;;;;;;5112847;28;20201;-71
2022/06/05 05:10:43;;;;;;;7.25;5.97;;;28.80;98.10;;;;;;5112710;28;20181;-71
2022/06/05 05:13:09;;;;;;;7.68;5.72;;;29.00;97.00;;;;;;5114263;28;20173;-70
2022/06/05 05:15:35;;;;;;;6.95;5.60;;;28.50;97.00;;;;;;5113990;28;20240;-71
2022/06/05 05:18:01;;;;;;;7.40;5.80;;;29.10;96.80;;;;;;5113466;28;20602;-70
2022/06/05 05:20:26;;;;;;;6.50;5.75;;;28.70;96.50;;;;;;5112684;28;20274;-71
2022/06/05 05:22:52;;;;;;;6.47;5.55;;;29.10;95.20;;;;;;5112693;28;20177;-70
2022/06/05 05:25:18;;;;;;;7.05;5.30;;;28.30;95.70;;;;;;5113293;28;20235;-70
2022/06/05 05:27:44;;;;;;;7.57;5.80;;;28.10;95.90;;;;;;5125495;27;20204;-70
2022/06/05 05:30:12;;;;;;;5.82;5.22;;;27.10;97.40;;;;;;5134037;27;20246;-71
2022/06/05 05:32:37;;;;;;;6.03;4.97;;;28.30;96.20;;;;;;5121231;27;20579;-71
2022/06/05 05:35:04;;;;;;;6.32;5.35;;;29.00;95.20;;;;;;5113721;28;20197;-70
2022/06/05 05:37:30;;;;;;;6.13;5.53;;;28.10;95.40;;;;;;5112771;28;20260;-71
2022/06/05 05:42:40;;;;;;;7.68;5.63;;;27.90;95.40;;;;;;5113593;28;20266;-71
2022/06/05 05:45:06;;;;;;;7.45;6.03;;;28.10;94.60;;;;;;5111393;28;20692;-71
2022/06/05 05:47:32;;;;;;;10.18;7.47;;;28.70;94.60;;;;;;5111812;28;20206;-71
2022/06/05 05:50:01;;;;;;;8.35;5.22;;;27.80;94.60;;;;;;5112631;28;20261;-71
2022/06/05 05:52:28;;;;;;;6.13;5.40;;;28.00;94.20;;;;;;5113726;28;20200;-72
2022/06/05 05:54:54;;;;;;;5.90;5.30;;;27.20;95.30;;;;;;5111756;28;20665;-70
2022/06/05 05:57:20;;;;;;;6.78;5.55;;;26.60;96.40;;;;;;5112006;28;20288;-70
2022/06/05 05:59:46;;;;;;;6.88;4.70;;;27.10;96.50;;;;;;5119974;27;20258;-71
2022/06/05 06:02:16;;;;;;;5.85;4.82;;;27.50;96.00;;;;;;5111923;27;20220;-71
2022/06/05 06:04:42;;;;;;;6.05;5.40;;;28.70;94.80;;;;;;5112995;28;20170;-70
2022/06/05 06:07:09;;;;;;;7.35;5.40;;;28.90;93.70;;;;;;5112185;28;20198;-71
2022/06/05 06:09:35;;;;;;;5.65;5.10;;;29.20;93.40;;;;;;5112814;28;20330;-71
2022/06/05 06:12:01;;;;;;;6.88;4.85;;;29.40;93.00;;;;;;5111670;28;20276;-71
2022/06/05 06:14:27;;;;;;;7.60;5.15;;;30.20;91.90;;;;;;5111355;28;20206;-71
2022/06/05 06:16:53;;;;;;;6.38;5.10;;;30.70;90.80;;;;;;5111647;28;20537;-71
2022/06/05 06:19:19;;;;;;;5.95;5.18;;;30.40;91.40;;;;;;5111664;28;20710;-71
2022/06/05 06:21:44;;;;;;;5.85;4.47;;;30.50;90.50;;;;;;5112813;28;20221;-70
2022/06/05 06:24:11;;;;;;;5.35;4.85;;;29.90;89.90;;;;;;5111696;28;20193;-71
2022/06/05 06:26:37;;;;;;;4.95;4.50;;;30.30;90.80;;;;;;5111082;28;20201;-71
2022/06/05 06:29:03;;;;;;;6.35;5.13;;;29.50;90.70;;;;;;5111096;28;20620;-71
2022/06/05 06:31:29;;;;;;;5.45;4.50;;;30.00;91.00;;;;;;5113512;27;20675;-71
2022/06/05 06:33:54;;;;;;;5.40;4.93;;;30.60;90.60;;;;;;5111229;28;20287;-72
2022/06/05 06:36:20;;;;;;;5.93;5.32;;;31.50;88.80;;;;;;5111165;28;20225;-71
2022/06/05 06:38:46;;;;;;;6.13;5.05;;;30.20;89.20;;;;;;5110839;28;20685;-71
2022/06/05 06:41:15;;;;;;;6.30;5.00;;;31.10;89.10;;;;;;5111177;28;20193;-71
2022/06/05 06:43:42;;;;;;;5.63;5.03;;;29.50;89.80;;;;;;5111058;28;20182;-72
2022/06/05 06:46:07;;;;;;;6.22;5.40;;;29.10;91.50;;;;;;5111305;28;20189;-71
2022/06/05 06:48:34;;;;;;;6.60;4.70;;;29.20;91.10;;;;;;5110515;28;20205;-71
2022/06/05 06:51:00;;;;;;;5.60;5.07;;;29.90;90.80;;;;;;5112270;28;20285;-71
2022/06/05 06:53:28;;;;;;;6.75;5.03;;;30.10;90.90;;;;;;5110802;28;20208;-71
2022/06/05 06:55:54;;;;;;;5.13;4.63;;;30.80;90.30;;;;;;5110506;28;20585;-71
2022/06/05 06:58:20;;;;;;;6.32;4.78;;;31.30;88.50;;;;;;5112229;28;20201;-72
2022/06/05 07:00:46;;;;;;;5.90;5.40;;;31.70;88.40;;;;;;5110615;28;20279;-71
2022/06/05 07:03:12;;;;;;;6.55;5.38;;;31.40;84.60;;;;;;5112473;28;20772;-71
2022/06/05 07:05:39;;;;;;;6.32;5.47;;;31.00;87.70;;;;;;5111684;28;20224;-72
2022/06/05 07:08:06;;;;;;;6.50;5.82;;;31.70;86.50;;;;;;5110437;28;20677;-71
2022/06/05 07:10:32;;;;;;;5.63;5.13;;;30.80;87.00;;;;;;5110867;28;20184;-71
2022/06/05 07:12:57;;;;;;;6.00;4.78;;;30.80;86.80;;;;;;5110600;28;20288;-71
2022/06/05 07:15:23;;;;;;;5.47;4.97;;;32.00;86.90;;;;;;5111709;28;20208;-71
2022/06/05 07:17:49;;;;;;;6.03;5.38;;;32.90;83.00;;;;;;5111953;28;20201;-72
2022/06/05 07:20:15;;;;;;;5.35;4.55;;;31.50;83.30;;;;;;5110349;28;20303;-70
2022/06/05 07:22:41;;;;;;;5.07;4.68;;;30.30;87.70;;;;;;5111873;28;20209;-70
2022/06/05 07:25:07;;;;;;;6.13;5.53;;;30.60;87.40;;;;;;5112165;28;20185;-70
2022/06/05 07:27:32;;;;;;;7.13;5.10;;;31.10;85.30;;;;;;5110598;28;20204;-70
2022/06/05 07:29:58;;;;;;;5.72;5.05;;;32.00;85.40;;;;;;5116392;27;20200;-71
2022/06/05 07:32:24;;;;;;;6.05;5.30;;;32.90;83.80;;;;;;5122441;27;20208;-71
2022/06/05 07:34:50;;;;;;;7.38;5.47;;;32.80;82.20;;;;;;5110370;28;20164;-71
2022/06/05 07:37:16;;;;;;;6.30;5.43;;;32.70;80.80;;;;;;5110674;28;20206;-71
2022/06/05 07:39:43;;;;;;;7.80;6.68;;;31.60;82.00;;;;;;5109648;28;20209;-70
2022/06/05 07:42:09;;;;;;;5.82;5.03;;;32.80;82.70;;;;;;5110564;28;20200;-70
2022/06/05 07:44:36;;;;;;;7.05;4.85;;;33.90;80.60;;;;;;5110110;28;20273;-70
2022/06/05 07:47:07;;;;;;;5.13;4.57;;;33.50;79.50;;;;;;5111588;28;20657;-71
2022/06/05 07:49:34;;;;;;;5.53;4.68;;;33.20;79.90;;;;;;5111738;28;20791;-70
2022/06/05 07:54:46;;;;;;;5.95;5.40;;;33.50;78.40;;;;;;5114951;28;20230;-70
2022/06/05 07:57:14;;;;;;;6.15;5.55;;;33.30;77.70;;;;;;5088928;22;20703;-70
2022/06/05 07:59:42;;;;;;;5.30;4.80;;;33.40;78.80;;;;;;5048662;28;20368;-69
2022/06/05 08:02:12;;;;;;;5.90;4.70;;;31.20;80.00;;;;;;5051045;28;20211;-70
2022/06/05 08:04:39;;;;;;;5.13;4.63;;;32.60;80.00;;;;;;5049938;28;20644;-70
2022/06/05 08:07:06;;;;;;;6.45;4.47;;;32.60;78.90;;;;;;5049511;28;20218;-70
2022/06/05 08:09:33;;;;;;;5.07;4.60;;;33.50;78.00;;;;;;5054011;28;20340;-70
2022/06/05 08:11:58;;;;;;;5.45;4.32;;;32.80;77.00;;;;;;5053333;28;20218;-70
2022/06/05 08:14:24;;;;;;;5.20;4.70;;;33.30;76.80;;;;;;5054314;28;20307;-70
2022/06/05 08:16:51;;;;;;;5.72;5.22;;;34.10;75.70;;;;;;5053204;28;20201;-70
2022/06/05 08:19:20;;;;;;;6.38;4.60;;;33.50;76.30;;;;;;5054951;28;20194;-70
2022/06/05 08:21:47;;;;;;;5.68;5.15;;;34.10;75.40;;;;;;5054657;28;20547;-70
2022/06/05 08:24:13;;;;;;;5.13;4.70;;;33.10;76.00;;;;;;5054430;28;20705;-70
2022/06/05 08:26:39;;;;;;;6.40;4.78;;;33.60;76.40;;;;;;5052759;28;20215;-70
2022/06/05 08:29:05;;;;;;;6.88;4.68;;;32.60;76.50;;;;;;5052502;28;20261;-70
2022/06/05 08:31:32;;;;;;;5.10;4.60;;;31.80;77.00;;;;;;5054621;28;20175;-69
2022/06/05 08:33:58;;;;;;;6.65;6.05;;;32.40;78.40;;;;;;5054320;28;20202;-69
2022/06/05 08:36:25;;;;;;;6.45;4.30;;;30.80;77.90;;;;;;5052734;28;20199;-69
2022/06/05 08:42:13;;;;;;;8.02;4.95;;;30.00;78.30;;;;;;5054382;28;20225;-69
2022/06/05 08:44:46;;;;;;;4.05;3.58;;;30.00;80.20;;;;;;5052461;28;20203;-70
2022/06/05 08:47:24;;;;;;;5.85;4.97;;;30.70;80.60;;;;;;5052680;28;20214;-69
2022/06/05 08:50:02;;;;;;;5.47;4.93;;;30.70;79.00;;;;;;5052481;28;20204;-69
2022/06/05 08:52:43;;;;;;;3.92;3.63;;;30.70;76.60;;;;;;5053245;28;20183;-69
2022/06/05 08:55:30;;;;;;;5.18;3.75;;;30.80;77.50;;;;;;5054189;28;20225;-70
2022/06/05 08:58:05;;;;;;;4.70;4.22;;;31.20;75.80;;;;;;5052139;28;20218;-69
2022/06/05 09:00:42;;;;;;;6.57;4.55;;;31.70;76.00;;;;;;5052346;28;20203;-69
2022/06/05 09:03:32;;;;;;;6.82;4.65;;;31.80;75.10;;;;;;5053658;28;20735;-69
2022/06/05 09:06:13;;;;;;;6.88;4.45;;;29.70;76.00;;;;;;5052465;28;20214;-70
2022/06/05 09:08:42;;;;;;;4.40;4.00;;;31.10;77.60;;;;;;5053349;28;20705;-70
2022/06/05 09:11:14;;;;;;;4.32;3.92;;;32.10;75.20;;;;;;5053616;28;20265;-70
2022/06/05 09:14:09;;;;;;;4.43;3.55;;;31.30;73.00;;;;;;5053440;28;20171;-69
2022/06/05 09:16:42;;;;;;;4.00;3.42;;;31.10;74.60;;;;;;5044402;28;20203;-69
2022/06/05 09:19:09;;;;;;;4.78;4.05;;;31.10;73.30;;;;;;5050603;28;20586;-69
2022/06/05 09:21:46;;;;;;;4.90;3.25;;;31.10;74.80;;;;;;5053020;28;20775;-70
2022/06/05 09:24:14;;;;;;;3.80;3.50;;;31.00;73.90;;;;;;5053958;28;20221;-69
2022/06/05 09:26:48;;;;;;;3.45;2.75;;;30.20;74.80;;;;;;5051762;28;20246;-69
2022/06/05 09:29:34;;;;;;;4.30;3.78;;;29.90;76.60;;;;;;5052904;28;20736;-70
2022/06/05 09:32:36;;;;;;;4.63;4.18;;;31.10;76.40;;;;;;5051815;28;20278;-69
2022/06/05 09:35:13;;;;;;;3.50;3.03;;;30.60;75.70;;;;;;4974957;28;20205;-70
2022/06/05 09:37:56;;;;;;;5.13;3.05;;;30.00;77.30;;;;;;5041568;28;20681;-69
2022/06/05 09:40:55;;;;;;;4.47;3.47;;;29.90;76.60;;;;;;5051857;28;20688;-69
2022/06/05 09:44:06;;;;;;;3.97;3.33;;;29.10;77.00;;;;;;5053207;28;20717;-69
2022/06/05 09:46:35;;;;;;;3.63;3.20;;;29.00;78.10;;;;;;5051795;28;20261;-69
2022/06/05 09:49:22;;;;;;;5.93;3.58;;;27.90;80.60;;;;;;5051245;28;20235;-69
2022/06/05 09:51:47;;;;;;;5.30;3.67;;;28.20;80.90;;;;;;5051454;28;20206;-69
2022/06/05 09:54:31;;;;;;;4.25;3.35;;;27.80;82.20;;;;;;5051462;28;20606;-69
2022/06/05 10:00:26;;;;;;;3.88;3.50;;;27.20;84.00;;;;;;5052443;28;20234;-69
2022/06/05 10:03:06;;;;;;;4.78;3.75;;;27.40;85.10;;;;;;5040695;28;20200;-69
2022/06/05 10:06:07;;;;;;;4.45;3.80;;;27.60;85.30;;;;;;5051294;28;20707;-69
2022/06/05 10:08:45;;;;;;;6.70;4.20;;;27.90;83.80;;;;;;5055450;28;20214;-69
2022/06/05 10:11:28;;;;;;;4.38;3.97;;;27.90;84.70;;;;;;5056824;28;20562;-69
2022/06/05 10:14:28;;;;;;;6.07;4.00;;;27.90;85.30;;;;;;5055154;28;20182;-69
2022/06/05 10:17:50;;;;;;;7.80;5.55;;;27.70;86.40;;;;;;5051276;28;20203;-69
2022/06/05 10:20:43;;;;;;;4.43;4.03;;;28.60;86.30;;;;;;5009960;28;20218;-69
2022/06/05 10:23:19;;;;;;;4.13;3.83;;;28.00;85.30;;;;;;5010043;28;20215;-69
2022/06/05 10:25:50;;;;;;;4.13;3.72;;;28.20;85.30;;;;;;5045375;28;20211;-69
2022/06/05 10:28:18;;;;;;;4.90;3.70;;;28.00;85.60;;;;;;5051126;28;20574;-70
2022/06/05 10:30:56;;;;;;;4.57;3.78;;;27.70;86.70;;;;;;5050162;28;20199;-69
2022/06/05 10:33:39;;;;;;;5.35;4.22;;;27.80;86.60;;;;;;5050435;28;20253;-69
2022/06/05 10:36:08;;;;;;;3.97;3.67;;;27.80;86.30;;;;;;5050305;28;20211;-69
2022/06/05 10:38:59;;;;;;;4.93;3.88;;;27.40;86.70;;;;;;5050046;28;20229;-69
2022/06/05 10:41:44;;;;;;;5.07;4.05;;;27.20;87.10;;;;;;5050453;28;20207;-69
2022/06/05 10:44:34;;;;;;;4.80;4.13;;;27.20;87.70;;;;;;5051790;28;20208;-69
2022/06/05 10:47:38;;;;;;;4.07;3.72;;;27.30;88.00;;;;;;5050548;28;20242;-69
2022/06/05 10:50:10;;;;;;;6.15;4.43;;;27.40;89.10;;;;;;4989786;28;20248;-69
2022/06/05 10:52:54;;;;;;;4.43;4.03;;;27.30;89.50;;;;;;4990256;28;20185;-69
2022/06/05 10:55:20;;;;;;;5.88;5.10;;;27.50;90.00;;;;;;5029261;28;20195;-69
2022/06/05 10:58:04;;;;;;;5.88;4.28;;;27.30;90.10;;;;;;5049961;28;20303;-68
2022/06/05 11:00:38;;;;;;;6.80;4.68;;;27.00;90.40;;;;;;5051616;28;20214;-69
2022/06/05 11:03:28;;;;;;;4.70;4.30;;;27.20;90.70;;;;;;5050142;28;20671;-69
2022/06/05 11:06:27;;;;;;;5.05;4.55;;;27.50;90.40;;;;;;5049974;28;20208;-69
2022/06/05 11:09:31;;;;;;;6.50;5.93;;;27.10;90.90;;;;;;5026802;28;20338;-69
2022/06/05 11:15:18;;;;;;;7.15;5.43;;;26.80;92.30;;;;;;5051500;28;20202;-70
2022/06/05 11:17:50;;;;;;;5.70;5.20;;;26.90;92.40;;;;;;5049792;28;20208;-69
2022/06/05 11:20:21;;;;;;;5.63;4.80;;;27.20;92.60;;;;;;5051207;28;20269;-70
2022/06/05 11:22:54;;;;;;;5.70;5.15;;;27.40;92.60;;;;;;5049860;28;20163;-69
2022/06/05 11:25:25;;;;;;;6.07;4.95;;;27.30;92.50;;;;;;5050372;28;20179;-69
2022/06/05 11:27:59;;;;;;;5.60;5.10;;;27.00;92.80;;;;;;5049714;28;20229;-70
2022/06/05 11:30:40;;;;;;;5.72;5.18;;;26.80;93.40;;;;;;5049526;28;20687;-70
2022/06/05 11:33:19;;;;;;;7.95;5.45;;;27.00;93.80;;;;;;5049618;28;20210;-69
2022/06/05 11:36:08;;;;;;;5.90;5.30;;;27.30;93.50;;;;;;5050599;28;20235;-69
2022/06/05 11:39:03;;;;;;;5.85;5.25;;;26.70;93.60;;;;;;5049116;28;20269;-70
2022/06/05 11:41:35;;;;;;;6.78;5.53;;;26.70;93.90;;;;;;5049266;28;20200;-70
2022/06/05 11:44:21;;;;;;;5.22;4.72;;;26.60;93.90;;;;;;5049434;28;20207;-70
2022/06/05 11:46:56;;;;;;;5.68;5.18;;;27.00;94.30;;;;;;5050647;28;20191;-70
2022/06/05 11:49:40;;;;;;;6.28;5.68;;;27.10;94.10;;;;;;5049714;28;20627;-69
2022/06/05 11:52:28;;;;;;;5.25;4.75;;;26.80;94.00;;;;;;5051048;28;20223;-69
2022/06/05 11:55:16;;;;;;;6.07;5.43;;;26.70;94.30;;;;;;5049468;28;20218;-70
2022/06/05 11:58:06;;;;;;;7.75;5.20;;;26.80;94.60;;;;;;5049872;28;20207;-69
2022/06/05 12:00:37;;;;;;;5.00;4.60;;;26.80;94.20;;;;;;5050529;28;20241;-69
2022/06/05 12:03:25;;;;;;;6.03;5.20;;;27.10;94.30;;;;;;5049445;28;20244;-70
2022/06/05 12:06:15;;;;;;;6.07;5.40;;;27.10;93.90;;;;;;5050564;28;20238;-68
2022/06/05 12:08:47;;;;;;;5.35;4.68;;;26.70;94.70;;;;;;5048816;28;20203;-68
2022/06/05 12:11:38;;;;;;;7.47;5.55;;;26.80;93.90;;;;;;5050577;28;20664;-68
2022/06/05 12:14:29;;;;;;;5.90;5.40;;;26.70;94.10;;;;;;5050468;28;20794;-68
2022/06/05 12:17:01;;;;;;;5.35;4.85;;;26.80;93.70;;;;;;5050401;28;20234;-68
2022/06/05 12:19:27;;;;;;;6.18;4.70;;;27.00;93.90;;;;;;5049297;28;20192;-69
2022/06/05 12:22:18;;;;;;;5.50;5.00;;;27.30;93.70;;;;;;5049078;28;20199;-68
2022/06/05 12:24:55;;;;;;;7.53;6.07;;;26.70;93.40;;;;;;5039892;28;20207;-68
2022/06/05 12:27:21;;;;;;;7.05;5.68;;;26.60;94.10;;;;;;5048791;28;20207;-68
2022/06/05 12:29:50;;;;;;;5.43;4.93;;;26.50;93.90;;;;;;5050332;28;20882;-69
2022/06/05 12:32:36;;;;;;;5.97;5.40;;;26.50;93.90;;;;;;5050249;28;20204;-70
2022/06/05 12:35:20;;;;;;;7.85;5.45;;;26.60;94.10;;;;;;5050657;28;20212;-70
2022/06/05 12:38:17;;;;;;;6.18;5.35;;;26.80;94.00;;;;;;5048611;28;20192;-69
2022/06/05 12:41:08;;;;;;;6.10;5.60;;;26.90;94.10;;;;;;5048760;28;20180;-69
2022/06/05 12:44:01;;;;;;;8.20;6.68;;;26.90;94.00;;;;;;5049442;28;20191;-68
2022/06/05 12:46:39;;;;;;;4.97;4.47;;;26.90;93.90;;;;;;5049101;28;20220;-70
2022/06/05 12:49:23;;;;;;;5.95;5.45;;;27.00;94.10;;;;;;5049838;28;20278;-69
2022/06/05 12:52:01;;;;;;;5.60;4.63;;;26.90;93.60;;;;;;5049056;28;20644;-69
2022/06/05 12:54:36;;;;;;;8.82;6.13;;;27.00;94.50;;;;;;5050653;28;20202;-69
2022/06/05 12:57:09;;;;;;;5.97;5.35;;;27.00;94.50;;;;;;5053915;28;20231;-69
2022/06/05 12:59:45;;;;;;;5.10;4.70;;;27.00;94.40;;;;;;5053193;28;20785;-69
2022/06/05 13:02:36;;;;;;;7.63;6.28;;;27.00;94.30;;;;;;5052426;28;20203;-69
2022/06/05 13:05:21;;;;;;;5.40;4.90;;;27.10;94.10;;;;;;5052491;28;20214;-69
2022/06/05 13:07:56;;;;;;;5.38;4.82;;;27.00;94.10;;;;;;5052185;28;20194;-69
2022/06/05 13:10:27;;;;;;;6.10;5.47;;;27.10;94.20;;;;;;5052546;28;20194;-69
2022/06/05 13:13:12;;;;;;;5.55;5.07;;;27.00;94.30;;;;;;5052372;28;20196;-69
2022/06/05 13:15:59;;;;;;;5.60;5.10;;;26.90;93.90;;;;;;5053457;28;20687;-69
2022/06/05 13:18:43;;;;;;;6.55;5.65;;;26.90;94.20;;;;;;5051826;28;20203;-69
2022/06/05 13:21:24;;;;;;;5.75;5.20;;;27.00;94.00;;;;;;5053316;28;20214;-69
2022/06/05 13:24:12;;;;;;;6.13;5.53;;;26.90;94.50;;;;;;5051639;28;20226;-69
2022/06/05 13:26:56;;;;;;;5.43;5.03;;;27.10;94.20;;;;;;5053265;28;20215;-69
2022/06/05 13:29:40;;;;;;;6.13;5.55;;;27.30;94.30;;;;;;5051814;28;20211;-69
2022/06/05 13:32:12;;;;;;;5.88;5.35;;;27.50;94.30;;;;;;5051671;28;20715;-69
2022/06/05 13:34:43;;;;;;;6.03;5.53;;;27.40;94.50;;;;;;5052286;28;20179;-69
2022/06/05 13:37:14;;;;;;;6.47;5.88;;;27.30;95.30;;;;;;5051942;28;20208;-69